Hlavní strana
METAR-TAF:

METAR-TAF

Letiště :

Bordj Badji Mokhtar, Alžírsko

zeměpisná šířka: 21-22-30N, zeměpisná délka: 000-55-26E, výška: 396 m

Aktuální stav počasí

Zpráva byla vytvořena před 13 minutami, v 13:00 UTC
Jihojihozápadní vítr 8 kt
Teplota 32°C
Tlak 1012 hPa
Viditelnost: 8000 m

METAR: DATM 011300Z 21008KT 8000 NSC 32/// Q1012

Čas: 14:13 (13:13 UTC)

Předpověď počasí

Zpráva byla vytvořena před 2 hodinami a 13 minutami, v 11:00 UTC
Předpověď platná od 01 v 12 UTC do 01 v 21 UTC
Jižní vítr 12 kt
Viditelnost: 8000 m
Pravděpodobnost 30% :
Dočasný
od 01 v 12 UTC do 01 v 15 UTC
Jižní vítr 22 kt
Viditelnost: 2000 m
nízko zvířený písek

TAF: DATM 011100Z 0112/0121 18012KT 8000 NSC PROB30 TEMPO 0112/0115 18022KT 2000 DRSA

Stav a předpovědi počasí z více než 4 000 letišť (zprávy METAR a TAF).

Červené a žluté tečky na mapě představují dostupné meteorologické stanice.

Když kurzor umístíte na tečku, zobrazí se název stanice.

Pak kliknutím zobrazíte stav a předpověď počasí.

Chcete-li změnit mapu, kliknutím na zelené tlačítko se znaménkem +mapu přiblížíte, kliknutím na zelené tlačítko se znaménkem – mapu oddálíte a kliknutím na zelené šipky přejdete na sousední mapy.


METAR-TAF: